createdAt,value
2018-09-30T00:00:54.810Z,7.20
2018-09-30T00:03:23.299Z,7.00
2018-09-30T00:05:51.933Z,7.20
2018-09-30T00:08:20.467Z,7.00
2018-09-30T00:10:49.138Z,7.10
2018-09-30T00:13:17.697Z,7.10
2018-09-30T00:15:46.188Z,7.20
2018-09-30T00:18:14.720Z,7.10
2018-09-30T00:20:43.194Z,7.00
2018-09-30T00:23:11.699Z,7.00
2018-09-30T00:25:45.511Z,7.00
2018-09-30T00:28:14.143Z,7.00
2018-09-30T00:30:42.861Z,6.90
2018-09-30T00:33:11.299Z,6.90
2018-09-30T00:35:39.927Z,6.90
2018-09-30T00:38:08.499Z,7.00
2018-09-30T00:40:37.117Z,7.00
2018-09-30T00:43:05.607Z,6.90
2018-09-30T00:45:34.269Z,6.90
2018-09-30T00:48:02.827Z,6.80
2018-09-30T00:50:31.422Z,6.80
2018-09-30T00:53:00.058Z,6.80
2018-09-30T00:55:28.816Z,6.80
2018-09-30T00:57:57.479Z,6.70
2018-09-30T01:00:26.055Z,6.70
2018-09-30T01:02:54.834Z,6.70
2018-09-30T01:05:23.338Z,6.70
2018-09-30T01:07:51.919Z,6.80
2018-09-30T01:10:20.477Z,6.70
2018-09-30T01:12:49.167Z,6.90
2018-09-30T01:15:17.708Z,6.90
2018-09-30T01:17:46.322Z,6.80
2018-09-30T01:20:14.891Z,6.80
2018-09-30T01:22:43.427Z,6.70
2018-09-30T01:25:12.088Z,6.70
2018-09-30T01:27:40.619Z,6.80
2018-09-30T01:30:09.167Z,6.80
2018-09-30T01:32:37.715Z,6.90
2018-09-30T01:35:06.473Z,6.90
2018-09-30T01:37:35.102Z,6.80
2018-09-30T01:40:03.694Z,6.80
2018-09-30T01:42:32.161Z,6.80
2018-09-30T01:45:00.692Z,6.80
2018-09-30T01:47:29.619Z,6.70
2018-09-30T01:49:58.131Z,6.70
2018-09-30T01:53:02.675Z,6.70
2018-09-30T01:55:31.190Z,6.70
2018-09-30T01:57:59.839Z,6.80
2018-09-30T02:00:28.391Z,6.80
2018-09-30T02:02:56.964Z,6.70
2018-09-30T02:05:25.484Z,6.70
2018-09-30T02:07:53.932Z,6.80
2018-09-30T02:10:22.435Z,6.90
2018-09-30T02:12:51.054Z,6.80
2018-09-30T02:15:19.546Z,6.90
2018-09-30T02:17:48.158Z,7.00
2018-09-30T02:20:16.774Z,6.90
2018-09-30T02:22:45.366Z,6.90
2018-09-30T02:25:14.006Z,6.80
2018-09-30T02:27:42.587Z,6.80
2018-09-30T02:30:11.214Z,6.70
2018-09-30T02:32:39.720Z,6.60
2018-09-30T02:35:08.197Z,6.70
2018-09-30T02:37:36.689Z,6.50
2018-09-30T02:40:05.453Z,6.50
2018-09-30T02:42:34.200Z,6.60
2018-09-30T02:45:02.694Z,6.60
2018-09-30T02:47:31.360Z,6.50
2018-09-30T02:49:59.805Z,6.50
2018-09-30T02:52:28.538Z,6.60
2018-09-30T02:54:57.060Z,6.50
2018-09-30T02:57:25.726Z,6.40
2018-09-30T02:59:54.219Z,6.50
2018-09-30T03:02:22.879Z,6.40
2018-09-30T03:04:51.460Z,6.40
2018-09-30T03:07:25.255Z,6.30
2018-09-30T03:09:53.768Z,6.30
2018-09-30T03:12:22.617Z,6.40
2018-09-30T03:14:51.077Z,6.40
2018-09-30T03:17:19.563Z,6.40
2018-09-30T03:19:48.212Z,6.40
2018-09-30T03:22:16.798Z,6.50
2018-09-30T03:24:45.367Z,8.50
2018-09-30T03:27:13.938Z,6.30
2018-09-30T03:29:42.631Z,6.30
2018-09-30T03:32:11.136Z,6.20
2018-09-30T03:34:39.766Z,6.40
2018-09-30T03:37:08.425Z,6.30
2018-09-30T03:39:36.919Z,6.20
2018-09-30T03:42:05.420Z,6.20
2018-09-30T03:44:34.091Z,6.10
2018-09-30T03:47:02.724Z,6.10
2018-09-30T03:49:31.320Z,6.00
2018-09-30T03:51:59.847Z,6.00
2018-09-30T03:54:28.306Z,6.00
2018-09-30T03:56:56.835Z,6.10
2018-09-30T03:59:25.619Z,6.00
2018-09-30T04:01:54.098Z,6.00
2018-09-30T04:04:22.910Z,5.90
2018-09-30T04:06:51.423Z,6.00
2018-09-30T04:09:20.003Z,6.00
2018-09-30T04:11:48.566Z,5.90
2018-09-30T04:14:17.215Z,5.90
2018-09-30T04:16:45.840Z,5.80
2018-09-30T04:19:14.471Z,5.90
2018-09-30T04:21:43.052Z,6.00
2018-09-30T04:24:11.929Z,6.00
2018-09-30T04:26:41.726Z,5.90
2018-09-30T04:29:10.378Z,5.90
2018-09-30T04:31:38.894Z,6.00
2018-09-30T04:34:07.364Z,5.30
2018-09-30T04:36:36.476Z,6.00
2018-09-30T04:39:07.297Z,5.90
2018-09-30T04:41:36.077Z,5.80
2018-09-30T04:44:04.878Z,5.80
2018-09-30T04:46:33.559Z,5.80
2018-09-30T04:49:02.157Z,5.80
2018-09-30T04:51:30.631Z,5.70
2018-09-30T04:53:59.431Z,5.60
2018-09-30T04:56:28.363Z,3.80
2018-09-30T04:58:56.951Z,5.70
2018-09-30T05:01:25.571Z,5.70
2018-09-30T05:03:54.062Z,5.50
2018-09-30T05:06:22.555Z,5.40
2018-09-30T05:08:51.083Z,5.30
2018-09-30T05:11:19.765Z,5.20
2018-09-30T05:13:48.259Z,5.30
2018-09-30T05:16:16.811Z,5.30
2018-09-30T05:18:45.610Z,5.20
2018-09-30T05:21:14.262Z,5.10
2018-09-30T05:23:43.000Z,5.10
2018-09-30T05:26:11.922Z,5.20
2018-09-30T05:28:40.440Z,5.10
2018-09-30T05:31:09.162Z,5.30
2018-09-30T05:33:37.658Z,5.30
2018-09-30T05:36:06.278Z,5.30
2018-09-30T05:38:34.843Z,5.30
2018-09-30T05:41:03.374Z,5.20
2018-09-30T05:43:32.075Z,5.10
2018-09-30T05:46:00.583Z,5.20
2018-09-30T05:48:29.153Z,5.10
2018-09-30T05:50:57.722Z,5.20
2018-09-30T05:53:26.289Z,5.30
2018-09-30T05:55:55.082Z,5.20
2018-09-30T05:58:23.532Z,5.20
2018-09-30T06:00:52.036Z,5.40
2018-09-30T06:03:20.727Z,5.30
2018-09-30T06:05:49.419Z,5.30
2018-09-30T06:08:17.963Z,5.30
2018-09-30T06:10:46.453Z,5.40
2018-09-30T06:13:14.966Z,5.40
2018-09-30T06:15:43.538Z,5.30
2018-09-30T06:18:12.356Z,5.40
2018-09-30T06:20:41.007Z,5.40
2018-09-30T06:23:09.508Z,5.50
2018-09-30T06:25:38.076Z,5.50
2018-09-30T06:28:06.667Z,5.50
2018-09-30T06:30:35.281Z,5.50
2018-09-30T06:33:03.766Z,5.60
2018-09-30T06:35:32.410Z,5.70
2018-09-30T06:38:01.063Z,5.80
2018-09-30T06:40:30.110Z,5.90
2018-09-30T06:42:58.599Z,5.90
2018-09-30T06:45:27.127Z,6.00
2018-09-30T06:47:55.619Z,6.10
2018-09-30T06:50:24.267Z,6.10
2018-09-30T06:52:52.803Z,6.20
2018-09-30T06:55:21.511Z,6.20
2018-09-30T06:57:50.070Z,6.40
2018-09-30T07:00:18.645Z,6.50
2018-09-30T07:02:47.287Z,6.70
2018-09-30T07:05:15.851Z,6.70
2018-09-30T07:07:44.747Z,6.80
2018-09-30T07:10:13.399Z,6.90
2018-09-30T07:12:42.224Z,7.00
2018-09-30T07:15:10.965Z,7.00
2018-09-30T07:17:39.487Z,7.10
2018-09-30T07:20:08.091Z,7.10
2018-09-30T07:22:36.666Z,7.20
2018-09-30T07:25:05.285Z,7.30
2018-09-30T07:27:33.895Z,7.30
2018-09-30T07:30:02.559Z,7.50
2018-09-30T07:32:31.071Z,7.70
2018-09-30T07:34:59.596Z,7.70
2018-09-30T07:37:28.406Z,7.80
2018-09-30T07:39:57.183Z,7.90
2018-09-30T07:42:25.689Z,8.20
2018-09-30T07:44:54.331Z,8.30
2018-09-30T07:47:22.874Z,8.30
2018-09-30T07:49:51.838Z,8.50
2018-09-30T07:52:20.438Z,8.80
2018-09-30T07:54:48.943Z,8.80
2018-09-30T07:57:17.592Z,9.00
2018-09-30T07:59:46.132Z,9.20
2018-09-30T08:02:15.036Z,9.40
2018-09-30T08:04:43.696Z,9.40
2018-09-30T08:07:12.512Z,9.60
2018-09-30T08:09:41.293Z,9.70
2018-09-30T08:12:09.894Z,10.00
2018-09-30T08:14:38.424Z,10.10
2018-09-30T08:17:07.161Z,10.20
2018-09-30T08:19:35.791Z,10.30
2018-09-30T08:22:04.500Z,10.40
2018-09-30T08:24:33.194Z,10.40
2018-09-30T08:27:01.622Z,10.50
2018-09-30T08:29:30.386Z,10.60
2018-09-30T08:31:58.968Z,10.80
2018-09-30T08:34:27.764Z,10.80
2018-09-30T08:36:56.428Z,10.80
2018-09-30T08:39:24.978Z,10.80
2018-09-30T08:41:53.519Z,10.90
2018-09-30T08:44:22.333Z,10.90
2018-09-30T08:46:51.135Z,10.90
2018-09-30T08:49:19.640Z,10.90
2018-09-30T08:51:48.186Z,10.90
2018-09-30T08:54:16.696Z,11.00
2018-09-30T08:56:45.607Z,11.00
2018-09-30T08:59:14.377Z,11.10
2018-09-30T09:01:42.942Z,11.10
2018-09-30T09:04:11.451Z,11.10
2018-09-30T09:06:40.137Z,11.20
2018-09-30T09:11:29.463Z,11.40
2018-09-30T09:13:58.079Z,11.40
2018-09-30T09:16:26.696Z,11.50
2018-09-30T09:18:55.279Z,11.60
2018-09-30T09:21:23.871Z,11.60
2018-09-30T09:23:52.456Z,11.60
2018-09-30T09:26:21.026Z,11.60
2018-09-30T09:28:49.710Z,11.70
2018-09-30T09:31:18.296Z,11.70
2018-09-30T09:33:46.898Z,11.70
2018-09-30T09:36:15.427Z,11.80
2018-09-30T09:38:44.236Z,11.80
2018-09-30T09:41:13.048Z,11.80
2018-09-30T09:43:41.866Z,11.90
2018-09-30T09:46:10.574Z,11.90
2018-09-30T09:48:39.396Z,11.90
2018-09-30T09:51:08.055Z,12.00
2018-09-30T09:53:36.644Z,12.00
2018-09-30T09:56:05.208Z,12.00
2018-09-30T09:58:33.784Z,12.00
2018-09-30T10:01:05.870Z,12.00
2018-09-30T10:03:34.620Z,12.10
2018-09-30T10:06:03.395Z,12.20
2018-09-30T10:08:31.955Z,12.20
2018-09-30T10:11:00.613Z,12.30
2018-09-30T10:13:29.205Z,12.40
2018-09-30T10:15:58.038Z,12.50
2018-09-30T10:18:26.839Z,12.50
2018-09-30T10:20:55.477Z,12.50
2018-09-30T10:23:24.183Z,12.60
2018-09-30T10:25:52.835Z,12.60
2018-09-30T10:28:21.386Z,12.60
2018-09-30T10:30:49.943Z,12.70
2018-09-30T10:33:18.714Z,12.70
2018-09-30T10:35:47.197Z,12.90
2018-09-30T10:38:15.804Z,13.00
2018-09-30T10:40:44.424Z,13.10
2018-09-30T10:43:12.923Z,13.10
2018-09-30T10:45:41.530Z,13.10
2018-09-30T10:48:10.117Z,13.30
2018-09-30T10:50:38.724Z,13.40
2018-09-30T10:53:07.297Z,13.50
2018-09-30T10:55:35.932Z,13.60
2018-09-30T10:58:04.789Z,13.70
2018-09-30T11:00:33.415Z,13.90
2018-09-30T11:03:02.394Z,13.90
2018-09-30T11:05:31.211Z,14.00
2018-09-30T11:08:00.038Z,14.10
2018-09-30T11:10:28.575Z,14.20
2018-09-30T11:12:57.352Z,14.30
2018-09-30T11:15:26.002Z,14.40
2018-09-30T11:17:54.545Z,14.50
2018-09-30T11:20:23.098Z,14.40
2018-09-30T11:22:51.771Z,14.40
2018-09-30T11:25:20.581Z,14.50
2018-09-30T11:27:49.173Z,14.60
2018-09-30T11:30:17.764Z,14.40
2018-09-30T11:32:46.485Z,14.40
2018-09-30T11:35:15.110Z,14.50
2018-09-30T11:37:43.608Z,14.50
2018-09-30T11:40:12.162Z,14.50
2018-09-30T11:42:40.820Z,14.40
2018-09-30T11:45:09.620Z,14.60
2018-09-30T11:47:38.286Z,14.50
2018-09-30T11:50:07.196Z,14.70
2018-09-30T11:52:35.829Z,14.70
2018-09-30T11:55:04.426Z,14.80
2018-09-30T11:57:33.327Z,14.80
2018-09-30T12:00:02.304Z,14.80
2018-09-30T12:02:30.937Z,14.80
2018-09-30T12:04:59.600Z,14.70
2018-09-30T12:07:28.184Z,14.70
2018-09-30T12:09:56.860Z,14.80
2018-09-30T12:12:25.516Z,14.80
2018-09-30T12:14:54.024Z,14.80
2018-09-30T12:17:22.696Z,14.80
2018-09-30T12:19:51.343Z,14.90
2018-09-30T12:22:20.297Z,14.80
2018-09-30T12:24:48.907Z,14.90
2018-09-30T12:27:17.754Z,14.90
2018-09-30T12:29:46.241Z,14.90
2018-09-30T12:32:15.069Z,14.90
2018-09-30T12:34:43.738Z,15.00
2018-09-30T12:37:12.447Z,15.00
2018-09-30T12:39:41.258Z,15.00
2018-09-30T12:42:09.893Z,14.90
2018-09-30T12:44:38.484Z,14.90
2018-09-30T12:47:07.007Z,14.90
2018-09-30T12:49:35.778Z,14.90
2018-09-30T12:52:04.463Z,14.90
2018-09-30T12:54:33.214Z,14.90
2018-09-30T12:57:01.967Z,14.90
2018-09-30T12:59:30.603Z,15.00
2018-09-30T13:01:59.218Z,15.00
2018-09-30T13:04:27.860Z,15.00
2018-09-30T13:06:56.505Z,15.00
2018-09-30T13:09:25.162Z,15.10
2018-09-30T13:11:53.800Z,15.20
2018-09-30T13:14:22.410Z,15.20
2018-09-30T13:16:51.151Z,15.20
2018-09-30T13:19:19.640Z,15.20
2018-09-30T13:21:48.353Z,15.10
2018-09-30T13:24:16.951Z,15.10
2018-09-30T13:26:45.548Z,15.10
2018-09-30T13:29:14.111Z,15.10
2018-09-30T13:31:42.688Z,15.20
2018-09-30T13:34:11.328Z,15.30
2018-09-30T13:36:39.819Z,15.20
2018-09-30T13:39:10.446Z,15.20
2018-09-30T13:41:39.540Z,15.10
2018-09-30T13:44:08.415Z,15.10
2018-09-30T13:46:37.419Z,15.10
2018-09-30T13:49:06.051Z,15.10
2018-09-30T13:51:34.828Z,15.10
2018-09-30T13:54:03.441Z,15.20
2018-09-30T13:56:32.224Z,15.20
2018-09-30T13:59:00.995Z,15.10
2018-09-30T14:01:29.698Z,15.20
2018-09-30T14:03:58.293Z,15.30
2018-09-30T14:06:26.835Z,15.30
2018-09-30T14:08:55.467Z,15.30
2018-09-30T14:11:24.235Z,15.30
2018-09-30T14:13:53.131Z,15.30
2018-09-30T14:16:21.825Z,15.30
2018-09-30T14:18:50.468Z,15.30
2018-09-30T14:21:19.348Z,15.20
2018-09-30T14:23:47.892Z,15.20
2018-09-30T14:26:16.654Z,15.20
2018-09-30T14:28:45.226Z,15.20
2018-09-30T14:31:13.765Z,15.20
2018-09-30T14:33:42.354Z,15.20
2018-09-30T14:36:10.864Z,15.20
2018-09-30T14:38:39.535Z,15.20
2018-09-30T14:41:08.161Z,15.30
2018-09-30T14:43:36.998Z,15.30
2018-09-30T14:46:05.639Z,15.30
2018-09-30T14:48:34.506Z,15.40
2018-09-30T14:51:03.071Z,15.40
2018-09-30T14:53:31.607Z,15.40
2018-09-30T14:56:00.303Z,15.40
2018-09-30T14:58:28.912Z,15.50
2018-09-30T15:00:57.504Z,15.50
2018-09-30T15:03:26.012Z,15.50
2018-09-30T15:05:54.925Z,15.50
2018-09-30T15:08:23.530Z,15.40
2018-09-30T15:10:52.233Z,15.40
2018-09-30T15:13:21.023Z,15.40
2018-09-30T15:15:49.878Z,15.50
2018-09-30T15:18:18.543Z,15.50
2018-09-30T15:20:47.256Z,15.40
2018-09-30T15:23:16.091Z,15.40
2018-09-30T15:25:44.707Z,15.40
2018-09-30T15:28:13.246Z,15.40
2018-09-30T15:30:41.814Z,15.40
2018-09-30T15:33:10.619Z,15.40
2018-09-30T15:35:39.339Z,15.40
2018-09-30T15:38:07.888Z,15.40
2018-09-30T15:40:36.597Z,15.40
2018-09-30T15:43:05.430Z,15.40
2018-09-30T15:45:34.185Z,15.40
2018-09-30T15:48:02.860Z,15.40
2018-09-30T15:50:31.435Z,15.30
2018-09-30T15:53:00.218Z,15.30
2018-09-30T15:55:28.748Z,15.30
2018-09-30T15:57:57.747Z,15.30
2018-09-30T16:00:26.284Z,15.30
2018-09-30T16:02:55.109Z,15.30
2018-09-30T16:05:23.904Z,15.30
2018-09-30T16:07:52.434Z,15.20
2018-09-30T16:10:21.025Z,15.20
2018-09-30T16:12:49.928Z,15.20
2018-09-30T16:15:18.522Z,15.10
2018-09-30T16:17:47.059Z,15.10
2018-09-30T16:20:16.052Z,15.10
2018-09-30T16:22:44.833Z,15.00
2018-09-30T16:25:13.483Z,14.90
2018-09-30T16:27:42.130Z,14.80
2018-09-30T16:30:10.694Z,14.80
2018-09-30T16:32:39.433Z,14.60
2018-09-30T16:35:08.210Z,14.60
2018-09-30T16:37:36.868Z,14.50
2018-09-30T16:40:05.450Z,14.40
2018-09-30T16:42:34.173Z,14.40
2018-09-30T16:45:02.942Z,14.30
2018-09-30T16:47:31.506Z,14.20
2018-09-30T16:50:00.092Z,16.60
2018-09-30T16:52:28.611Z,14.00
2018-09-30T16:54:57.305Z,14.00
2018-09-30T16:57:25.860Z,13.70
2018-09-30T16:59:54.464Z,13.60
2018-09-30T17:02:23.050Z,13.60
2018-09-30T17:04:51.632Z,13.50
2018-09-30T17:07:20.305Z,13.40
2018-09-30T17:09:49.043Z,13.40
2018-09-30T17:12:17.675Z,13.30
2018-09-30T17:14:46.285Z,13.20
2018-09-30T17:17:14.941Z,13.10
2018-09-30T17:19:43.817Z,13.00
2018-09-30T17:22:12.351Z,12.90
2018-09-30T17:24:40.944Z,12.80
2018-09-30T17:27:09.545Z,12.80
2018-09-30T17:29:38.188Z,12.70
2018-09-30T17:32:06.795Z,12.60
2018-09-30T17:34:35.566Z,12.60
2018-09-30T17:37:04.335Z,12.60
2018-09-30T17:39:33.066Z,12.50
2018-09-30T17:42:01.601Z,12.40
2018-09-30T17:44:30.397Z,12.40
2018-09-30T17:46:59.185Z,12.40
2018-09-30T17:49:27.723Z,12.30
2018-09-30T17:51:56.525Z,12.30
2018-09-30T17:54:25.315Z,12.20
2018-09-30T17:56:54.001Z,12.20
2018-09-30T17:59:22.663Z,12.10
2018-09-30T18:01:51.342Z,12.00
2018-09-30T18:04:20.187Z,11.90
2018-09-30T18:06:48.703Z,12.00
2018-09-30T18:09:17.408Z,12.00
2018-09-30T18:11:46.370Z,12.00
2018-09-30T18:14:15.040Z,12.00
2018-09-30T18:16:43.652Z,12.00
2018-09-30T18:19:12.390Z,12.00
2018-09-30T18:21:41.094Z,12.00
2018-09-30T18:24:09.801Z,11.90
2018-09-30T18:26:38.767Z,11.80
2018-09-30T18:29:07.472Z,11.80
2018-09-30T18:31:36.432Z,11.70
2018-09-30T18:34:05.107Z,11.50
2018-09-30T18:36:34.016Z,11.50
2018-09-30T18:39:03.389Z,11.40
2018-09-30T18:41:32.148Z,11.40
2018-09-30T18:44:01.188Z,11.40
2018-09-30T18:46:30.395Z,11.50
2018-09-30T18:48:59.572Z,11.50
2018-09-30T18:51:28.581Z,11.50
2018-09-30T18:53:57.772Z,11.50
2018-09-30T18:56:26.894Z,11.40
2018-09-30T18:58:55.833Z,11.40
2018-09-30T19:01:24.866Z,11.40
2018-09-30T19:03:53.996Z,11.40
2018-09-30T19:06:23.154Z,11.40
2018-09-30T19:08:52.190Z,11.40
2018-09-30T19:11:21.240Z,11.30
2018-09-30T19:13:50.120Z,11.30
2018-09-30T19:16:19.351Z,11.30
2018-09-30T19:18:48.821Z,11.30
2018-09-30T19:21:17.823Z,11.30
2018-09-30T19:23:46.761Z,11.30
2018-09-30T19:26:15.374Z,11.20
2018-09-30T19:28:43.904Z,11.10
2018-09-30T19:31:12.506Z,11.10
2018-09-30T19:33:41.187Z,11.00
2018-09-30T19:36:09.978Z,11.10
2018-09-30T19:38:38.580Z,11.00
2018-09-30T19:41:07.543Z,11.10
2018-09-30T19:43:36.383Z,11.10
2018-09-30T19:46:05.171Z,11.10
2018-09-30T19:48:34.242Z,11.00
2018-09-30T19:51:02.894Z,11.00
2018-09-30T19:53:31.778Z,11.00
2018-09-30T19:56:00.365Z,11.00
2018-09-30T19:58:29.204Z,11.00
2018-09-30T20:00:58.078Z,11.00
2018-09-30T20:03:26.813Z,10.90
2018-09-30T20:05:55.383Z,10.90
2018-09-30T20:08:24.065Z,10.90
2018-09-30T20:10:52.944Z,10.90
2018-09-30T20:13:21.576Z,11.00
2018-09-30T20:15:50.245Z,10.90
2018-09-30T20:18:18.894Z,10.90
2018-09-30T20:20:47.565Z,10.70
2018-09-30T20:23:16.031Z,10.70
2018-09-30T20:25:44.717Z,10.40
2018-09-30T20:28:13.355Z,10.40
2018-09-30T20:30:42.002Z,10.40
2018-09-30T20:33:10.527Z,10.40
2018-09-30T20:35:39.044Z,10.30
2018-09-30T20:38:08.121Z,10.40
2018-09-30T20:40:39.936Z,10.40
2018-09-30T20:43:08.824Z,10.40
2018-09-30T20:45:37.791Z,10.40
2018-09-30T20:48:06.876Z,10.40
2018-09-30T20:50:35.627Z,10.30
2018-09-30T20:53:04.434Z,10.40
2018-09-30T20:55:33.996Z,10.30
2018-09-30T20:58:02.948Z,10.40
2018-09-30T21:00:31.635Z,10.50
2018-09-30T21:03:00.521Z,10.50
2018-09-30T21:06:40.224Z,10.50
2018-09-30T21:09:13.542Z,10.50
2018-09-30T21:11:42.082Z,10.50
2018-09-30T21:14:10.835Z,10.50
2018-09-30T21:16:39.367Z,10.50
2018-09-30T21:19:08.086Z,10.50
2018-09-30T21:21:36.772Z,10.40
2018-09-30T21:24:05.297Z,10.40
2018-09-30T21:26:33.808Z,10.50
2018-09-30T21:29:02.392Z,10.40
2018-09-30T21:31:31.000Z,10.40
2018-09-30T21:33:59.537Z,10.40
2018-09-30T21:36:28.195Z,10.40
2018-09-30T21:38:56.891Z,10.40
2018-09-30T21:41:25.380Z,10.40
2018-09-30T21:43:54.012Z,10.30
2018-09-30T21:46:22.494Z,10.30
2018-09-30T21:48:51.247Z,10.30
2018-09-30T21:51:20.063Z,10.30
2018-09-30T21:53:48.564Z,10.30
2018-09-30T21:56:17.094Z,10.30
2018-09-30T21:58:45.811Z,10.20
2018-09-30T22:01:14.489Z,10.20
2018-09-30T22:03:42.923Z,10.20
2018-09-30T22:06:11.481Z,10.20
2018-09-30T22:08:40.116Z,10.20
2018-09-30T22:11:08.846Z,10.20
2018-09-30T22:13:37.297Z,10.20
2018-09-30T22:16:05.971Z,10.20
2018-09-30T22:18:34.483Z,10.20
2018-09-30T22:21:02.960Z,10.30
2018-09-30T22:23:31.540Z,10.30
2018-09-30T22:26:00.340Z,10.30
2018-09-30T22:28:28.946Z,10.40
2018-09-30T22:30:57.554Z,10.40
2018-09-30T22:33:26.193Z,10.30
2018-09-30T22:35:55.003Z,10.40
2018-09-30T22:38:23.564Z,10.40
2018-09-30T22:40:52.257Z,10.40
2018-09-30T22:43:20.803Z,10.30
2018-09-30T22:45:49.451Z,10.30
2018-09-30T22:48:17.971Z,10.30
2018-09-30T22:50:46.534Z,10.40
2018-09-30T22:53:15.162Z,10.40
2018-09-30T22:55:43.741Z,10.40
2018-09-30T22:58:12.384Z,10.40
2018-09-30T23:00:40.950Z,10.40
2018-09-30T23:03:09.581Z,10.50
2018-09-30T23:05:38.109Z,10.50
2018-09-30T23:08:06.728Z,10.50
2018-09-30T23:10:35.232Z,10.60
2018-09-30T23:13:03.693Z,10.60
2018-09-30T23:15:32.251Z,10.60
2018-09-30T23:18:00.746Z,10.60
2018-09-30T23:20:29.388Z,10.70
2018-09-30T23:22:57.886Z,10.70
2018-09-30T23:25:26.520Z,10.70
2018-09-30T23:27:55.023Z,10.70
2018-09-30T23:30:23.615Z,10.70
2018-09-30T23:32:52.315Z,10.80
2018-09-30T23:35:20.842Z,10.80
2018-09-30T23:37:49.450Z,10.90
2018-09-30T23:40:18.126Z,10.90
2018-09-30T23:42:46.677Z,10.90
2018-09-30T23:45:15.167Z,10.90
2018-09-30T23:47:43.880Z,10.90
2018-09-30T23:50:12.415Z,10.90
2018-09-30T23:52:40.997Z,11.00
2018-09-30T23:55:09.563Z,11.00
2018-09-30T23:57:38.268Z,11.10
